Time;durP1;ratioP1;P1;durP2;ratioP2;P2;SDS_P1;SDS_P2;PMS_P1;PMS_P2;Temp;Humidity;BMP_temperature;BMP_pressure;BME280_temperature;BME280_humidity;BME280_pressure;Samples;Min_cycle;Max_cycle;Signal;HPM_P1;HPM_P2
2023/03/26 00:01:35;;;;;;;15.27;4.10;;;7.80;99.90;;;;;;5002780;28;20052;-72
2023/03/26 00:04:05;;;;;;;14.40;3.40;;;7.70;99.90;;;;;;5007078;28;20863;-71
2023/03/26 00:06:37;;;;;;;;;;;7.70;99.90;;;;;;5007375;28;20057;-73
2023/03/26 00:09:06;;;;;;;18.13;4.70;;;7.70;99.90;;;;;;5033599;28;19932;-74
2023/03/26 00:11:33;;;;;;;15.40;3.72;;;7.60;99.90;;;;;;5025633;28;20490;-74
2023/03/26 00:14:01;;;;;;;16.55;4.00;;;7.60;99.90;;;;;;5012708;28;20052;-74
2023/03/26 00:16:30;;;;;;;18.58;3.95;;;7.60;99.90;;;;;;5002233;28;20141;-74
2023/03/26 00:18:56;;;;;;;16.00;4.20;;;7.60;99.90;;;;;;5028296;28;20075;-74
2023/03/26 00:21:27;;;;;;;16.45;4.47;;;7.60;99.90;;;;;;5025326;28;20037;-74
2023/03/26 00:24:03;;;;;;;12.82;4.00;;;7.60;99.90;;;;;;5010989;28;20040;-74
2023/03/26 00:26:31;;;;;;;15.90;4.13;;;7.60;99.90;;;;;;5025908;28;20135;-74
2023/03/26 00:28:57;;;;;;;15.27;4.03;;;7.60;99.90;;;;;;5027515;28;20045;-73
2023/03/26 00:31:23;;;;;;;13.30;3.75;;;7.50;99.90;;;;;;5008631;28;20044;-74
2023/03/26 00:33:53;;;;;;;12.77;4.05;;;7.50;99.90;;;;;;5026940;28;20471;-74
2023/03/26 00:36:19;;;;;;;14.70;3.97;;;7.60;99.90;;;;;;4999030;28;20068;-74
2023/03/26 00:38:46;;;;;;;13.55;4.03;;;7.60;99.90;;;;;;5024002;28;20040;-74
2023/03/26 00:41:21;;;;;;;17.15;4.68;;;7.60;99.90;;;;;;5006495;28;21249;-74
2023/03/26 00:43:50;;;;;;;12.50;3.47;;;7.60;99.90;;;;;;5032412;28;20037;-73
2023/03/26 00:46:16;;;;;;;12.25;4.32;;;7.50;99.90;;;;;;5013041;28;21308;-74
2023/03/26 00:48:43;;;;;;;16.85;4.70;;;7.50;99.90;;;;;;5030562;28;20059;-73
2023/03/26 00:51:10;;;;;;;15.75;4.18;;;7.50;99.90;;;;;;4999204;28;20083;-73
2023/03/26 00:53:37;;;;;;;19.08;4.55;;;7.50;99.90;;;;;;5005407;28;20033;-74
2023/03/26 00:56:05;;;;;;;14.70;3.95;;;7.50;99.90;;;;;;5020254;28;20071;-74
2023/03/26 00:58:32;;;;;;;12.90;4.25;;;7.40;99.90;;;;;;5032061;28;20048;-73
2023/03/26 01:01:03;;;;;;;11.68;4.00;;;7.40;99.90;;;;;;5022997;28;20099;-73
2023/03/26 01:03:35;;;;;;;17.88;4.55;;;7.40;99.90;;;;;;5030147;28;20706;-73
2023/03/26 01:06:08;;;;;;;12.00;3.70;;;7.30;99.90;;;;;;5028755;28;20079;-74
2023/03/26 01:08:47;;;;;;;17.45;4.05;;;7.30;99.90;;;;;;5030445;28;20079;-74
2023/03/26 01:11:26;;;;;;;16.10;4.05;;;7.30;99.90;;;;;;5027526;28;20414;-74
2023/03/26 01:14:10;;;;;;;12.05;3.70;;;7.20;99.90;;;;;;5027310;28;20044;-73
2023/03/26 01:16:59;;;;;;;13.48;3.33;;;7.20;99.90;;;;;;5046312;28;20737;-74
2023/03/26 01:19:44;;;;;;;16.63;3.88;;;7.20;99.90;;;;;;5027425;28;20091;-74
2023/03/26 01:22:20;;;;;;;15.93;4.05;;;7.20;99.90;;;;;;5013245;28;20056;-74
2023/03/26 01:24:51;;;;;;;16.02;3.85;;;7.10;99.90;;;;;;5002581;28;20110;-73
2023/03/26 01:27:26;;;;;;;13.43;3.63;;;7.10;99.90;;;;;;5012404;28;20068;-74
2023/03/26 01:30:09;;;;;;;16.40;3.42;;;7.00;99.90;;;;;;5023790;28;20055;-73
2023/03/26 01:32:38;;;;;;;13.07;3.63;;;7.00;99.90;;;;;;5028153;28;20047;-74
2023/03/26 01:35:11;;;;;;;12.32;3.90;;;6.90;99.90;;;;;;5028605;28;20941;-74
2023/03/26 01:37:58;;;;;;;14.80;3.80;;;6.90;99.90;;;;;;5028204;28;20515;-74
2023/03/26 01:40:41;;;;;;;11.75;3.40;;;6.80;99.90;;;;;;5029334;28;20049;-73
2023/03/26 01:43:32;;;;;;;14.85;4.35;;;6.80;99.90;;;;;;5029077;28;20051;-74
2023/03/26 01:46:02;;;;;;;16.45;4.47;;;6.80;99.90;;;;;;5011936;28;21328;-74
2023/03/26 01:48:35;;;;;;;;;;;6.70;99.90;;;;;;5029312;28;20546;-74
2023/03/26 01:51:02;;;;;;;19.30;4.45;;;6.70;99.90;;;;;;5026801;28;21242;-73
2023/03/26 01:53:29;;;;;;;12.88;3.95;;;6.60;99.90;;;;;;5012014;28;20076;-73
2023/03/26 01:56:15;;;;;;;14.10;4.93;;;6.60;99.90;;;;;;5014067;28;20545;-73
2023/03/26 01:58:51;;;;;;;12.30;3.50;;;6.50;99.90;;;;;;5028159;28;20145;-73
2023/03/26 02:01:29;;;;;;;15.10;3.97;;;6.50;99.90;;;;;;5023433;28;20055;-73
2023/03/26 02:04:01;;;;;;;14.15;3.22;;;6.40;99.90;;;;;;5015172;28;20045;-73
2023/03/26 02:06:42;;;;;;;18.88;4.63;;;6.50;99.90;;;;;;5030076;28;20078;-73
2023/03/26 02:09:13;;;;;;;13.63;3.83;;;6.40;99.90;;;;;;5028983;28;20106;-72
2023/03/26 02:11:40;;;;;;;17.00;4.47;;;6.40;99.90;;;;;;5028370;28;20055;-72
2023/03/26 02:14:07;;;;;;;16.58;4.15;;;6.50;99.90;;;;;;4999556;28;20048;-72
2023/03/26 02:16:33;;;;;;;13.15;3.90;;;6.50;99.90;;;;;;5010890;28;20051;-72
2023/03/26 02:19:03;;;;;;;14.07;3.53;;;6.50;99.90;;;;;;5001427;28;20045;-72
2023/03/26 02:21:32;;;;;;;17.30;4.13;;;6.60;99.90;;;;;;5026835;28;20047;-72
2023/03/26 02:24:01;;;;;;;16.17;4.07;;;6.60;99.90;;;;;;5022166;28;20861;-72
2023/03/26 02:26:32;;;;;;;15.27;4.35;;;6.60;99.90;;;;;;5010051;28;20051;-72
2023/03/26 02:28:58;;;;;;;14.25;3.88;;;6.60;99.90;;;;;;5028574;28;20583;-72
2023/03/26 02:31:25;;;;;;;13.27;4.03;;;6.60;99.90;;;;;;5027458;28;20040;-72
2023/03/26 02:33:52;;;;;;;19.02;3.90;;;6.70;99.90;;;;;;5009881;28;20136;-72
2023/03/26 02:36:23;;;;;;;14.45;3.67;;;6.70;99.90;;;;;;5014847;28;20036;-72
2023/03/26 02:38:53;;;;;;;15.63;3.95;;;6.70;99.90;;;;;;5011363;28;20048;-72
2023/03/26 02:41:19;;;;;;;12.05;4.03;;;6.70;99.90;;;;;;5014752;28;20107;-71
2023/03/26 02:43:45;;;;;;;18.95;3.78;;;6.70;99.90;;;;;;5028193;28;20664;-73
2023/03/26 02:46:11;;;;;;;17.27;3.83;;;6.70;99.90;;;;;;4997398;28;20168;-72
2023/03/26 02:48:37;;;;;;;15.70;4.55;;;6.70;99.90;;;;;;5008209;28;20582;-72
2023/03/26 02:51:03;;;;;;;13.55;3.90;;;6.70;99.90;;;;;;5014821;28;20051;-72
2023/03/26 02:53:29;;;;;;;16.38;4.55;;;6.80;99.90;;;;;;5009272;28;20043;-72
2023/03/26 02:55:56;;;;;;;17.98;4.22;;;6.80;99.90;;;;;;5023634;28;20044;-72
2023/03/26 02:58:24;;;;;;;17.98;4.30;;;6.80;99.90;;;;;;5005642;28;20207;-72
2023/03/26 03:00:55;;;;;;;15.32;4.35;;;6.80;99.90;;;;;;5026685;28;20056;-71
2023/03/26 03:03:23;;;;;;;17.30;4.07;;;6.80;99.90;;;;;;5012694;28;20965;-72
2023/03/26 03:05:53;;;;;;;16.60;4.93;;;6.90;99.90;;;;;;5040598;28;21277;-71
2023/03/26 03:08:28;;;;;;;13.45;3.88;;;6.90;99.90;;;;;;5008676;28;20048;-72
2023/03/26 03:11:00;;;;;;;13.90;4.07;;;6.90;99.90;;;;;;5007916;28;20051;-72
2023/03/26 03:13:26;;;;;;;12.75;3.88;;;6.90;99.90;;;;;;5022692;28;20052;-72
2023/03/26 03:15:52;;;;;;;19.80;5.25;;;6.90;99.90;;;;;;5006937;28;20132;-72
2023/03/26 03:18:18;;;;;;;16.73;4.63;;;6.90;99.90;;;;;;5006826;28;20109;-72
2023/03/26 03:20:44;;;;;;;16.35;4.07;;;6.90;99.90;;;;;;5025527;28;20044;-71
2023/03/26 03:23:10;;;;;;;15.45;3.90;;;6.90;99.90;;;;;;5008136;28;20936;-72
2023/03/26 03:25:37;;;;;;;14.18;4.57;;;6.80;99.90;;;;;;5005459;28;20116;-72
2023/03/26 03:28:03;;;;;;;13.45;3.35;;;6.80;99.90;;;;;;5013780;28;20052;-72
2023/03/26 03:30:29;;;;;;;12.98;3.72;;;6.80;99.90;;;;;;4992184;28;20702;-72
2023/03/26 03:32:57;;;;;;;13.02;3.90;;;6.80;99.90;;;;;;4994890;28;20140;-72
2023/03/26 03:35:23;;;;;;;16.98;3.97;;;6.70;99.90;;;;;;4995466;28;20036;-71
2023/03/26 03:37:50;;;;;;;17.42;3.80;;;6.60;99.90;;;;;;4994048;28;20075;-72
2023/03/26 03:40:16;;;;;;;14.07;4.20;;;6.60;99.90;;;;;;5006635;28;20106;-72
2023/03/26 03:42:41;;;;;;;18.17;4.43;;;6.60;99.90;;;;;;5023805;28;20047;-72
2023/03/26 03:45:08;;;;;;;12.75;4.03;;;6.60;99.90;;;;;;5024542;28;20303;-72
2023/03/26 03:47:34;;;;;;;8.60;3.47;;;6.50;99.90;;;;;;5022283;28;20041;-72
2023/03/26 03:50:00;;;;;;;16.98;4.15;;;6.40;99.90;;;;;;4997705;28;20048;-71
2023/03/26 03:52:27;;;;;;;13.15;3.35;;;6.40;99.90;;;;;;4993547;28;20102;-71
2023/03/26 03:54:55;;;;;;;16.52;3.80;;;6.30;99.90;;;;;;5006796;28;20049;-72
2023/03/26 03:57:21;;;;;;;17.25;4.78;;;6.20;99.90;;;;;;4997390;28;20048;-72
2023/03/26 03:59:48;;;;;;;24.45;5.20;;;6.20;99.90;;;;;;5006969;28;20052;-72
2023/03/26 04:02:19;;;;;;;19.60;4.40;;;6.10;99.90;;;;;;5008746;28;20056;-72
2023/03/26 04:04:49;;;;;;;20.60;4.75;;;6.10;99.90;;;;;;5020227;28;20426;-72
2023/03/26 04:07:14;;;;;;;19.30;4.50;;;6.00;99.90;;;;;;5024364;28;20044;-71
2023/03/26 04:09:40;;;;;;;18.30;4.03;;;6.00;99.90;;;;;;4985936;28;20060;-72
2023/03/26 04:12:06;;;;;;;18.85;4.50;;;5.80;99.90;;;;;;4970689;28;20048;-71
2023/03/26 04:14:32;;;;;;;20.80;5.07;;;5.80;99.90;;;;;;5005786;28;20052;-71
2023/03/26 04:16:58;;;;;;;10.25;3.40;;;5.80;99.90;;;;;;4993140;28;20060;-71
2023/03/26 04:19:26;;;;;;;12.60;3.65;;;5.80;99.90;;;;;;4991295;28;20136;-71
2023/03/26 04:21:53;;;;;;;17.42;4.57;;;5.70;99.90;;;;;;4992136;28;20507;-71
2023/03/26 04:24:21;;;;;;;17.05;4.30;;;5.80;99.90;;;;;;4989881;28;20053;-72
2023/03/26 04:26:48;;;;;;;21.38;5.07;;;5.80;99.90;;;;;;4989082;28;20065;-72
2023/03/26 04:29:17;;;;;;;17.40;5.50;;;5.80;99.90;;;;;;4991503;28;20076;-71
2023/03/26 04:31:43;;;;;;;20.00;4.95;;;5.70;99.90;;;;;;5025371;28;20051;-72
2023/03/26 04:34:22;;;;;;;13.13;4.40;;;5.70;99.90;;;;;;5008591;28;20057;-72
2023/03/26 04:36:50;;;;;;;13.80;4.72;;;5.70;99.90;;;;;;4989810;28;20049;-72
2023/03/26 04:39:16;;;;;;;13.88;4.03;;;5.70;99.90;;;;;;5007537;28;20120;-72
2023/03/26 04:41:42;;;;;;;16.30;4.88;;;5.70;99.90;;;;;;4971826;28;20095;-72
2023/03/26 04:44:08;;;;;;;15.07;5.32;;;5.70;99.90;;;;;;5004485;28;20093;-71
2023/03/26 04:46:34;;;;;;;17.35;5.38;;;5.80;99.90;;;;;;4975480;28;20061;-72
2023/03/26 04:49:03;;;;;;;20.08;5.70;;;5.80;99.90;;;;;;4968285;28;20079;-71
2023/03/26 04:51:37;;;;;;;12.05;4.50;;;5.80;99.90;;;;;;4992722;28;20530;-72
2023/03/26 04:54:05;;;;;;;17.25;5.70;;;5.80;99.90;;;;;;5008770;28;20056;-72
2023/03/26 04:56:34;;;;;;;17.50;5.50;;;5.80;99.90;;;;;;4992098;28;20051;-72
2023/03/26 04:59:01;;;;;;;11.70;4.32;;;5.90;99.90;;;;;;4990675;28;20057;-72
2023/03/26 05:01:27;;;;;;;12.07;5.15;;;5.90;99.90;;;;;;4976110;28;20078;-71
2023/03/26 05:03:53;;;;;;;20.30;5.80;;;5.90;99.90;;;;;;5008691;28;20079;-71
2023/03/26 05:06:20;;;;;;;16.23;5.30;;;5.90;99.90;;;;;;4990404;28;20048;-72
2023/03/26 05:08:46;;;;;;;17.33;5.50;;;6.00;99.90;;;;;;4983369;28;20049;-71
2023/03/26 05:11:12;;;;;;;13.30;4.43;;;6.00;99.90;;;;;;5007423;28;20110;-72
2023/03/26 05:13:41;;;;;;;12.10;4.50;;;6.00;99.90;;;;;;4971801;28;20045;-71
2023/03/26 05:16:09;;;;;;;12.73;4.60;;;6.00;99.90;;;;;;4984300;28;20080;-72
2023/03/26 05:18:36;;;;;;;15.18;4.80;;;6.00;99.90;;;;;;4975981;28;20183;-71
2023/03/26 05:21:02;;;;;;;21.67;6.13;;;6.00;99.90;;;;;;4991135;28;20049;-72
2023/03/26 05:23:28;;;;;;;18.00;6.45;;;6.10;99.90;;;;;;4989583;28;20057;-71
2023/03/26 05:25:54;;;;;;;17.73;5.32;;;6.10;99.90;;;;;;4985482;28;20064;-72
2023/03/26 05:28:23;;;;;;;17.75;5.20;;;6.10;99.90;;;;;;4989018;28;20054;-71
2023/03/26 05:30:51;;;;;;;15.38;5.10;;;6.10;99.90;;;;;;4987775;28;20160;-71
2023/03/26 05:33:18;;;;;;;15.70;5.07;;;6.10;99.90;;;;;;4986821;28;20254;-72
2023/03/26 05:35:44;;;;;;;13.80;5.22;;;6.10;99.90;;;;;;4989398;28;20049;-71
2023/03/26 05:38:10;;;;;;;14.40;5.68;;;6.20;99.90;;;;;;5003043;28;20048;-72
2023/03/26 05:40:39;;;;;;;11.85;5.65;;;6.10;99.90;;;;;;5006595;28;20036;-72
2023/03/26 05:43:05;;;;;;;15.70;5.07;;;6.20;99.90;;;;;;4998445;28;20053;-72
2023/03/26 05:45:31;;;;;;;16.90;5.18;;;6.10;99.90;;;;;;4975942;28;20776;-72
2023/03/26 05:47:57;;;;;;;13.48;4.90;;;6.20;99.90;;;;;;5007380;28;20061;-72
2023/03/26 05:50:23;;;;;;;15.70;5.65;;;6.20;99.90;;;;;;4991912;28;20506;-72
2023/03/26 05:52:49;;;;;;;17.65;6.05;;;6.20;99.90;;;;;;4975775;28;20150;-72
2023/03/26 05:55:17;;;;;;;15.52;6.00;;;6.20;99.90;;;;;;4976223;28;20041;-72
2023/03/26 05:57:43;;;;;;;20.40;5.82;;;6.20;99.90;;;;;;5023426;28;20057;-72
2023/03/26 06:00:10;;;;;;;13.15;4.72;;;6.20;99.90;;;;;;4975733;28;20110;-71
2023/03/26 06:02:36;;;;;;;13.80;5.03;;;6.20;99.90;;;;;;4974482;28;20048;-72
2023/03/26 06:05:03;;;;;;;13.10;5.15;;;6.20;99.90;;;;;;4977772;28;20049;-72
2023/03/26 06:07:32;;;;;;;14.73;5.20;;;6.20;99.90;;;;;;5009082;28;20056;-72
2023/03/26 06:09:58;;;;;;;16.80;5.63;;;6.20;99.90;;;;;;5006894;28;20056;-72
2023/03/26 06:12:24;;;;;;;12.48;4.93;;;6.30;99.90;;;;;;5006632;28;20059;-72
2023/03/26 06:14:50;;;;;;;16.90;5.45;;;6.30;99.90;;;;;;4974921;28;20079;-72
2023/03/26 06:17:15;;;;;;;21.52;5.93;;;6.30;99.90;;;;;;4972370;28;20052;-72
2023/03/26 06:19:41;;;;;;;15.13;5.28;;;6.30;99.90;;;;;;4988762;28;20069;-72
2023/03/26 06:22:07;;;;;;;18.20;6.15;;;6.40;99.90;;;;;;5007058;28;20052;-72
2023/03/26 06:24:33;;;;;;;12.60;5.53;;;6.40;99.90;;;;;;4973125;28;20055;-71
2023/03/26 06:27:02;;;;;;;14.82;5.18;;;6.40;99.90;;;;;;4969889;28;20041;-73
2023/03/26 06:29:28;;;;;;;18.15;6.40;;;6.50;99.90;;;;;;4986905;28;20040;-72
2023/03/26 06:31:53;;;;;;;15.68;5.63;;;6.50;99.90;;;;;;4988496;28;20052;-74
2023/03/26 06:34:19;;;;;;;14.43;5.57;;;6.50;99.90;;;;;;5003874;28;20152;-72
2023/03/26 06:36:47;;;;;;;15.27;5.03;;;6.60;99.90;;;;;;4989423;28;20060;-73
2023/03/26 06:39:14;;;;;;;18.65;5.30;;;6.50;99.90;;;;;;4987904;28;20052;-73
2023/03/26 06:41:40;;;;;;;17.85;5.28;;;6.60;99.90;;;;;;4991211;28;20051;-73
2023/03/26 06:44:06;;;;;;;16.05;4.60;;;6.60;99.90;;;;;;5004037;28;20048;-73
2023/03/26 06:46:31;;;;;;;16.50;5.13;;;6.70;99.90;;;;;;4989897;28;20561;-73
2023/03/26 06:48:58;;;;;;;22.42;5.15;;;6.70;99.90;;;;;;4989737;28;20106;-73
2023/03/26 06:51:24;;;;;;;14.45;3.95;;;6.70;99.90;;;;;;5005499;28;20128;-73
2023/03/26 06:53:50;;;;;;;19.13;4.90;;;6.80;99.90;;;;;;5004858;28;20123;-73
2023/03/26 06:56:16;;;;;;;16.02;3.95;;;6.80;99.90;;;;;;4956347;28;20048;-73
2023/03/26 06:58:44;;;;;;;20.08;5.18;;;6.80;99.90;;;;;;5006463;28;20132;-73
2023/03/26 07:01:10;;;;;;;21.63;4.88;;;6.80;99.90;;;;;;4988963;28;20044;-72
2023/03/26 07:03:36;;;;;;;18.17;4.63;;;6.90;99.90;;;;;;4990486;28;20041;-71
2023/03/26 07:06:02;;;;;;;19.05;4.07;;;6.90;99.90;;;;;;4988434;28;20053;-72
2023/03/26 07:08:29;;;;;;;19.92;5.05;;;6.90;99.90;;;;;;5007880;28;20076;-72
2023/03/26 07:10:55;;;;;;;16.80;4.65;;;6.90;99.90;;;;;;5004178;28;20140;-72
2023/03/26 07:13:21;;;;;;;22.48;4.43;;;6.90;99.90;;;;;;4982019;28;20048;-71
2023/03/26 07:15:48;;;;;;;18.70;4.70;;;6.90;99.90;;;;;;4989774;28;20745;-72
2023/03/26 07:18:14;;;;;;;16.83;4.22;;;6.90;99.90;;;;;;5005254;28;20052;-72
2023/03/26 07:20:41;;;;;;;17.48;3.45;;;6.90;99.90;;;;;;5022947;28;20110;-72
2023/03/26 07:23:09;;;;;;;22.63;4.53;;;6.90;99.90;;;;;;5016187;28;20063;-72
2023/03/26 07:25:34;;;;;;;16.30;3.70;;;6.90;99.90;;;;;;4993508;28;20040;-72
2023/03/26 07:28:12;;;;;;;18.30;3.70;;;6.90;99.90;;;;;;5020228;28;20487;-72
2023/03/26 07:31:02;;;;;;;19.23;4.13;;;7.00;99.90;;;;;;5009210;28;20541;-72
2023/03/26 07:33:47;;;;;;;16.50;3.83;;;7.00;99.90;;;;;;5026586;28;20056;-72
2023/03/26 07:36:32;;;;;;;20.55;4.32;;;7.00;99.90;;;;;;5009830;28;20045;-72
2023/03/26 07:39:17;;;;;;;20.75;3.78;;;7.00;99.90;;;;;;5026098;28;20045;-72
2023/03/26 07:42:09;;;;;;;24.02;4.50;;;7.00;99.90;;;;;;5024469;28;20145;-72
2023/03/26 07:44:35;;;;;;;16.23;3.83;;;7.10;99.90;;;;;;5024165;28;20123;-72
2023/03/26 07:47:09;;;;;;;17.33;3.90;;;7.00;99.90;;;;;;5025888;28;20048;-72
2023/03/26 07:49:36;;;;;;;19.55;4.53;;;7.10;99.90;;;;;;5023910;28;20044;-72
2023/03/26 07:52:02;;;;;;;21.15;4.10;;;7.10;99.90;;;;;;5044322;28;20051;-72
2023/03/26 07:54:28;;;;;;;14.75;3.58;;;7.20;99.90;;;;;;5028099;28;20890;-73
2023/03/26 07:57:03;;;;;;;18.15;3.83;;;7.20;99.90;;;;;;5007378;28;20064;-72
2023/03/26 07:59:48;;;;;;;17.80;3.83;;;7.30;99.90;;;;;;5029818;28;20052;-72
2023/03/26 08:02:40;;;;;;;20.88;4.32;;;7.30;99.90;;;;;;5028404;28;20106;-73
2023/03/26 08:05:20;;;;;;;16.27;3.83;;;7.40;99.90;;;;;;5010049;28;20052;-73
2023/03/26 08:08:15;;;;;;;14.48;3.45;;;7.50;99.90;;;;;;5029566;28;20101;-73
2023/03/26 08:10:49;;;;;;;19.55;4.15;;;7.50;99.90;;;;;;5024721;28;20061;-72
2023/03/26 08:13:23;;;;;;;17.92;4.28;;;7.40;99.90;;;;;;5007057;28;20045;-73
2023/03/26 08:16:08;;;;;;;21.17;3.55;;;7.50;99.90;;;;;;5032300;28;20049;-73
2023/03/26 08:18:44;;;;;;;16.65;3.58;;;7.50;99.90;;;;;;4999779;28;20048;-73
2023/03/26 08:21:41;;;;;;;20.80;3.90;;;7.50;99.90;;;;;;5007114;28;20056;-73
2023/03/26 08:24:21;;;;;;;19.33;4.13;;;7.50;99.90;;;;;;5020755;28;20513;-73
2023/03/26 08:27:33;;;;;;;16.05;3.72;;;7.50;99.90;;;;;;5027636;28;20060;-73
2023/03/26 08:30:15;;;;;;;18.95;3.67;;;7.50;99.90;;;;;;4925414;28;20054;-73
2023/03/26 08:32:47;;;;;;;17.50;4.25;;;7.50;99.90;;;;;;4923743;28;20082;-72
2023/03/26 08:35:14;;;;;;;16.92;3.25;;;7.50;99.90;;;;;;4990369;28;20053;-72
2023/03/26 08:37:40;;;;;;;15.05;3.60;;;7.50;99.90;;;;;;5042430;28;20871;-72
2023/03/26 08:40:06;;;;;;;17.05;3.78;;;7.50;99.90;;;;;;5010651;28;20546;-72
2023/03/26 08:42:50;;;;;;;16.33;3.50;;;7.50;99.90;;;;;;5005979;28;20045;-72
2023/03/26 08:45:41;;;;;;;16.77;4.57;;;7.50;99.90;;;;;;5022025;28;20048;-72
2023/03/26 08:48:10;;;;;;;13.38;3.30;;;7.60;99.90;;;;;;5011369;28;20475;-73
2023/03/26 08:51:06;;;;;;;14.57;3.45;;;7.60;99.90;;;;;;5009469;28;20074;-71
2023/03/26 08:53:38;;;;;;;20.48;3.58;;;7.70;99.90;;;;;;5023041;28;20062;-72
2023/03/26 08:56:19;;;;;;;13.77;3.55;;;7.70;99.90;;;;;;5030190;28;20048;-72
2023/03/26 08:59:14;;;;;;;;;;;7.80;99.90;;;;;;5010669;28;20682;-72
2023/03/26 09:01:55;;;;;;;15.75;3.83;;;7.80;99.90;;;;;;4964229;28;20259;-72
2023/03/26 09:05:06;;;;;;;15.73;3.60;;;7.80;99.90;;;;;;5008857;28;20052;-72
2023/03/26 09:08:03;;;;;;;18.45;3.72;;;7.80;99.90;;;;;;5046062;28;20081;-72
2023/03/26 09:10:53;;;;;;;17.42;3.25;;;7.80;99.90;;;;;;5028328;28;20052;-72
2023/03/26 09:13:22;;;;;;;;;;;7.90;99.90;;;;;;5042650;28;20053;-72
2023/03/26 09:16:04;;;;;;;15.43;3.53;;;7.80;99.90;;;;;;5042692;28;19986;-73
2023/03/26 09:19:02;;;;;;;17.17;4.07;;;7.80;99.90;;;;;;5008649;28;20049;-73
2023/03/26 09:21:34;;;;;;;17.90;4.13;;;7.90;99.90;;;;;;5010085;28;20052;-73
2023/03/26 09:24:45;;;;;;;18.45;4.00;;;7.90;99.90;;;;;;5013235;28;20059;-73
2023/03/26 09:27:52;;;;;;;14.70;3.70;;;7.90;99.90;;;;;;5028965;28;20045;-72
2023/03/26 09:30:35;;;;;;;17.20;3.20;;;8.00;99.90;;;;;;5027260;28;20161;-72
2023/03/26 09:33:19;;;;;;;14.20;3.72;;;8.00;99.90;;;;;;5026292;28;20580;-74
2023/03/26 09:36:26;;;;;;;17.67;4.32;;;8.10;99.90;;;;;;5027165;28;20036;-73
2023/03/26 09:39:19;;;;;;;27.52;8.00;;;8.10;99.90;;;;;;4982196;28;20089;-73
2023/03/26 09:42:02;;;;;;;14.00;3.40;;;8.20;99.90;;;;;;5026648;28;20084;-73
2023/03/26 09:44:53;;;;;;;13.93;3.42;;;8.20;99.90;;;;;;5042137;28;20371;-73
2023/03/26 09:48:07;;;;;;;15.52;3.70;;;8.20;99.90;;;;;;5022946;28;20045;-73
2023/03/26 09:50:46;;;;;;;14.38;3.03;;;8.20;99.90;;;;;;5013670;28;20056;-73
2023/03/26 09:53:37;;;;;;;16.73;3.70;;;8.20;99.90;;;;;;5024515;28;21284;-72
2023/03/26 09:56:30;;;;;;;20.05;3.20;;;8.20;99.90;;;;;;5027642;28;20829;-72
2023/03/26 09:59:19;;;;;;;14.00;3.25;;;8.10;99.90;;;;;;5025597;28;20248;-72
2023/03/26 10:02:26;;;;;;;12.18;2.65;;;8.10;99.90;;;;;;5027030;28;21262;-72
2023/03/26 10:05:08;;;;;;;15.43;3.28;;;8.20;99.90;;;;;;4959290;28;20616;-74
2023/03/26 10:08:09;;;;;;;14.43;2.60;;;8.20;99.90;;;;;;5009455;28;20455;-73
2023/03/26 10:10:44;;;;;;;9.48;2.35;;;8.30;99.90;;;;;;5026738;28;20056;-73
2023/03/26 10:13:42;;;;;;;12.15;2.65;;;8.20;99.90;;;;;;5025598;28;20135;-73
2023/03/26 10:16:13;;;;;;;11.98;2.92;;;8.30;99.90;;;;;;5009114;28;20973;-73
2023/03/26 10:18:55;;;;;;;14.38;2.47;;;8.30;99.90;;;;;;5023182;28;20823;-73
2023/03/26 10:21:25;;;;;;;16.75;3.90;;;8.40;99.90;;;;;;5007005;28;20056;-73
2023/03/26 10:23:57;;;;;;;11.95;3.30;;;8.40;99.90;;;;;;5036477;28;20073;-73
2023/03/26 10:26:56;;;;;;;16.00;3.33;;;8.50;99.90;;;;;;5044236;28;20097;-73
2023/03/26 10:29:40;;;;;;;11.90;2.60;;;8.50;99.90;;;;;;5025751;28;20868;-73
2023/03/26 10:32:18;;;;;;;18.17;3.25;;;8.50;99.90;;;;;;5006886;28;20386;-73
2023/03/26 10:35:14;;;;;;;12.73;3.20;;;8.40;99.90;;;;;;5024674;28;20055;-74
2023/03/26 10:38:13;;;;;;;16.63;3.10;;;8.50;99.90;;;;;;5026514;28;20048;-73
2023/03/26 10:41:03;;;;;;;13.00;3.20;;;8.50;99.90;;;;;;5042955;28;20037;-73
2023/03/26 10:43:58;;;;;;;14.07;2.95;;;8.50;99.90;;;;;;5007600;28;20040;-73
2023/03/26 10:46:47;;;;;;;14.50;3.15;;;8.60;99.90;;;;;;5009756;28;20109;-72
2023/03/26 10:49:38;;;;;;;11.98;2.95;;;8.50;99.70;;;;;;5017801;28;20142;-74
2023/03/26 10:52:08;;;;;;;11.73;2.58;;;8.60;99.10;;;;;;5017155;28;20043;-72
2023/03/26 10:54:41;;;;;;;10.80;2.58;;;8.60;99.30;;;;;;5017496;28;20041;-72
2023/03/26 10:57:21;;;;;;;10.68;3.30;;;8.60;99.50;;;;;;5001814;28;20175;-73
2023/03/26 10:59:47;;;;;;;13.73;2.97;;;8.70;99.00;;;;;;5004869;28;20056;-71
2023/03/26 11:02:36;;;;;;;12.82;3.45;;;8.70;98.10;;;;;;4988491;28;20408;-72
2023/03/26 11:05:28;;;;;;;14.18;2.83;;;8.70;98.20;;;;;;5020421;28;20056;-72
2023/03/26 11:08:13;;;;;;;15.68;3.22;;;8.80;98.00;;;;;;4986889;28;20160;-74
2023/03/26 11:11:08;;;;;;;18.27;3.25;;;8.80;98.00;;;;;;5024710;28;20572;-73
2023/03/26 11:13:47;;;;;;;12.77;3.17;;;8.70;97.90;;;;;;4999935;28;20059;-73
2023/03/26 11:16:29;;;;;;;14.65;3.67;;;8.70;99.50;;;;;;5020246;28;20093;-73
2023/03/26 11:19:10;;;;;;;13.93;3.03;;;8.70;98.60;;;;;;5021702;28;20146;-73
2023/03/26 11:21:45;;;;;;;18.30;3.67;;;8.70;98.80;;;;;;5022927;28;20780;-73
2023/03/26 11:24:23;;;;;;;16.48;3.33;;;8.70;99.30;;;;;;5006120;28;20052;-73
2023/03/26 11:26:57;;;;;;;21.05;4.00;;;8.70;99.60;;;;;;5022147;28;20098;-73
2023/03/26 11:29:32;;;;;;;13.77;3.50;;;8.70;99.20;;;;;;5022221;28;20055;-73
2023/03/26 11:32:11;;;;;;;16.35;3.63;;;8.70;98.30;;;;;;5022016;28;20049;-73
2023/03/26 11:35:07;;;;;;;16.23;3.30;;;8.70;98.70;;;;;;5019259;28;20048;-73
2023/03/26 11:37:45;;;;;;;15.20;3.38;;;8.60;98.10;;;;;;5004057;28;20044;-73
2023/03/26 11:40:41;;;;;;;17.27;4.05;;;8.50;97.50;;;;;;5023219;28;20048;-72
2023/03/26 11:43:11;;;;;;;14.00;3.33;;;8.40;98.10;;;;;;4998892;28;20473;-73
2023/03/26 11:45:41;;;;;;;15.27;3.05;;;8.40;98.20;;;;;;5005295;28;20078;-73
2023/03/26 11:48:15;;;;;;;14.48;3.58;;;8.30;98.80;;;;;;5007644;28;20202;-72
2023/03/26 11:50:46;;;;;;;14.10;3.05;;;8.40;99.00;;;;;;5020562;28;20067;-71
2023/03/26 11:53:16;;;;;;;14.05;3.13;;;8.50;97.60;;;;;;5020245;28;20361;-72
2023/03/26 11:56:02;;;;;;;12.25;2.78;;;8.50;96.80;;;;;;5005036;28;21944;-71
2023/03/26 11:58:30;;;;;;;13.77;3.40;;;8.40;97.20;;;;;;5024778;28;20048;-71
2023/03/26 12:00:56;;;;;;;13.35;3.15;;;8.40;97.20;;;;;;5014905;28;20090;-71
2023/03/26 12:03:22;;;;;;;11.00;2.70;;;8.30;97.90;;;;;;5031136;28;20181;-71
2023/03/26 12:05:50;;;;;;;16.52;3.75;;;8.30;97.80;;;;;;5029482;28;20040;-72
2023/03/26 12:08:38;;;;;;;18.05;3.92;;;8.40;96.90;;;;;;5006367;28;20041;-72
2023/03/26 12:11:11;;;;;;;14.55;3.63;;;8.40;96.00;;;;;;5006623;28;20164;-71
2023/03/26 12:13:54;;;;;;;12.90;3.28;;;8.40;96.30;;;;;;5010672;28;20457;-72
2023/03/26 12:16:21;;;;;;;13.10;3.28;;;8.40;96.10;;;;;;5043148;28;20049;-72
2023/03/26 12:19:00;;;;;;;13.07;3.25;;;8.50;95.40;;;;;;4998002;28;20163;-71
2023/03/26 12:21:26;;;;;;;13.68;3.00;;;8.40;95.20;;;;;;5031855;28;20116;-72
2023/03/26 12:24:07;;;;;;;14.60;2.72;;;8.40;94.50;;;;;;5027726;28;20048;-70
2023/03/26 12:26:47;;;;;;;12.95;3.45;;;8.30;94.60;;;;;;5029794;28;20041;-71
2023/03/26 12:29:16;;;;;;;13.25;3.22;;;8.30;94.70;;;;;;5027985;28;20061;-72
2023/03/26 12:31:48;;;;;;;11.00;2.90;;;8.30;95.40;;;;;;5033814;28;20072;-71
2023/03/26 12:34:17;;;;;;;15.50;3.30;;;8.30;94.80;;;;;;5031578;28;20064;-72
2023/03/26 12:36:55;;;;;;;12.02;2.72;;;8.40;93.90;;;;;;5034983;28;20124;-71
2023/03/26 12:39:42;;;;;;;15.10;2.95;;;8.30;94.50;;;;;;5033623;28;21876;-71
2023/03/26 12:42:30;;;;;;;12.95;2.83;;;8.30;95.00;;;;;;5016526;28;20044;-71
2023/03/26 12:44:57;;;;;;;10.07;2.80;;;8.30;95.40;;;;;;5035259;28;20076;-71
2023/03/26 12:47:32;;;;;;;12.45;2.80;;;8.30;95.00;;;;;;5034312;28;20052;-72
2023/03/26 12:49:59;;;;;;;15.95;3.60;;;8.30;95.20;;;;;;5036705;28;20127;-71
2023/03/26 12:52:31;;;;;;;13.95;3.17;;;8.30;94.60;;;;;;5007169;28;20127;-72
2023/03/26 12:55:35;;;;;;;11.25;3.17;;;8.40;93.50;;;;;;5032206;28;20044;-71
2023/03/26 12:58:32;;;;;;;10.55;2.88;;;8.40;93.40;;;;;;5036417;28;20059;-72
2023/03/26 13:01:24;;;;;;;11.63;2.35;;;8.50;92.90;;;;;;5037604;28;20079;-73
2023/03/26 13:04:33;;;;;;;13.23;2.75;;;8.40;92.40;;;;;;5050044;28;20048;-71
2023/03/26 13:07:16;;;;;;;14.20;2.55;;;8.40;93.00;;;;;;5028266;28;20053;-72
2023/03/26 13:10:21;;;;;;;10.05;2.30;;;8.40;93.60;;;;;;5012528;28;20217;-71
2023/03/26 13:12:56;;;;;;;11.18;2.50;;;8.40;92.80;;;;;;4978129;28;20052;-71
2023/03/26 13:15:22;;;;;;;13.30;2.65;;;8.30;92.80;;;;;;5030132;28;20036;-72
2023/03/26 13:17:56;;;;;;;10.10;2.50;;;8.30;92.30;;;;;;5025130;28;20056;-72
2023/03/26 13:20:44;;;;;;;9.90;2.50;;;8.30;92.70;;;;;;5009667;28;20206;-72
2023/03/26 13:23:28;;;;;;;11.15;2.58;;;8.30;93.30;;;;;;5045072;28;20051;-72
2023/03/26 13:26:02;;;;;;;12.13;2.70;;;8.40;92.80;;;;;;5027732;28;20052;-72